DAL7257 TJSJ-SVMI
Flight info
| Callsign | DAL7257 |
|---|---|
| Flight time | 1h 24m |
| Altitude | 36000 |
| Route | GANBO1 ARMUR UN779 MIDUR PULPO1 |
| Aircraft | A319/M-SDE3FGHIRWY/LB1 |
Departure
| Time | 2025-10-04 23:19 |
|---|---|
| Airport | Luis Munoz Marin International Airport (TJSJ) |
Arrival
| Time | 2025-10-05 00:44 |
|---|---|
| Airport | Maiquetía Simón Bolívar International Airport (SVMI) |
| Time | Latitude | Longitude | Altitude | Speed | Heading |
|---|---|---|---|---|---|
| 2025-10-04 23:00 | 18.43624 | -66.00141 | 19 ft | 0 kts | 5° |
| 2025-10-04 23:11 | 18.43602 | -66.00143 | 19 ft | 3 kts | 5° |
| 2025-10-04 23:12 | 18.43566 | -66.00138 | 20 ft | 3 kts | 308° |
| 2025-10-04 23:12 | 18.43558 | -66.00119 | 20 ft | 0 kts | 261° |
| 2025-10-04 23:14 | 18.43552 | -66.00160 | 19 ft | 17 kts | 263° |
| 2025-10-04 23:14 | 18.43475 | -66.00375 | 19 ft | 17 kts | 270° |
| 2025-10-04 23:15 | 18.43465 | -66.01048 | 20 ft | 31 kts | 270° |
| 2025-10-04 23:16 | 18.43578 | -66.01357 | 19 ft | 22 kts | 359° |
| 2025-10-04 23:16 | 18.43772 | -66.01396 | 18 ft | 0 kts | 309° |
| 2025-10-04 23:17 | 18.43892 | -66.01439 | 18 ft | 19 kts | 45° |
| 2025-10-04 23:17 | 18.44257 | -66.00546 | 23 ft | 124 kts | 67° |
| 2025-10-04 23:18 | 18.45135 | -65.98546 | 742 ft | 155 kts | 57° |
| 2025-10-04 23:18 | 18.46038 | -65.97954 | 1161 ft | 162 kts | 9° |
| 2025-10-04 23:19 | 18.48723 | -66.00543 | 1924 ft | 221 kts | 322° |
| 2025-10-04 23:19 | 18.51663 | -66.02278 | 2617 ft | 263 kts | 322° |
| 2025-10-04 23:20 | 18.53174 | -66.05757 | 4083 ft | 277 kts | 270° |
| 2025-10-04 23:20 | 18.52980 | -66.09847 | 5730 ft | 283 kts | 261° |
| 2025-10-04 23:21 | 18.50925 | -66.13282 | 7230 ft | 287 kts | 211° |
| 2025-10-04 23:21 | 18.47130 | -66.14568 | 8753 ft | 290 kts | 192° |
| 2025-10-04 23:22 | 18.45154 | -66.15071 | 9509 ft | 293 kts | 192° |
| 2025-10-04 23:22 | 18.41146 | -66.16097 | 9986 ft | 303 kts | 193° |
| 2025-10-04 23:23 | 18.34683 | -66.17773 | 10013 ft | 324 kts | 193° |
| 2025-10-04 23:23 | 18.30336 | -66.18909 | 10325 ft | 328 kts | 193° |
| 2025-10-04 23:24 | 18.26085 | -66.20924 | 11455 ft | 344 kts | 217° |
| 2025-10-04 23:24 | 18.22738 | -66.24554 | 12730 ft | 352 kts | 227° |
| 2025-10-04 23:25 | 18.21072 | -66.26505 | 13362 ft | 356 kts | 227° |
| 2025-10-04 23:25 | 18.17718 | -66.30421 | 14492 ft | 363 kts | 227° |
| 2025-10-04 23:26 | 18.14303 | -66.34390 | 15569 ft | 369 kts | 227° |
| 2025-10-04 23:26 | 18.10849 | -66.38405 | 16623 ft | 375 kts | 227° |
| 2025-10-04 23:27 | 18.04840 | -66.43698 | 18197 ft | 382 kts | 202° |
| 2025-10-04 23:27 | 17.99656 | -66.44876 | 19102 ft | 385 kts | 182° |
| 2025-10-04 23:28 | 17.94279 | -66.45287 | 20054 ft | 389 kts | 182° |
| 2025-10-04 23:28 | 17.88854 | -66.45709 | 20990 ft | 394 kts | 183° |
| 2025-10-04 23:29 | 17.84279 | -66.46057 | 21738 ft | 398 kts | 182° |
| 2025-10-04 23:29 | 17.81514 | -66.46268 | 22196 ft | 400 kts | 183° |
| 2025-10-04 23:30 | 17.75924 | -66.46696 | 23091 ft | 405 kts | 183° |
| 2025-10-04 23:30 | 17.70266 | -66.47130 | 23886 ft | 410 kts | 183° |
| 2025-10-04 23:31 | 17.61688 | -66.47800 | 24960 ft | 415 kts | 183° |
| 2025-10-04 23:32 | 17.44192 | -66.49120 | 26999 ft | 425 kts | 184° |
| 2025-10-04 23:34 | 17.23234 | -66.50726 | 29193 ft | 438 kts | 184° |
| 2025-10-04 23:36 | 16.95507 | -66.52839 | 31571 ft | 449 kts | 184° |
| 2025-10-04 23:38 | 16.71562 | -66.54656 | 34183 ft | 441 kts | 183° |
| 2025-10-04 23:40 | 16.47132 | -66.56513 | 35866 ft | 445 kts | 183° |
| 2025-10-04 23:42 | 16.21969 | -66.58408 | 35976 ft | 454 kts | 184° |
| 2025-10-04 23:44 | 15.96740 | -66.60314 | 35969 ft | 455 kts | 184° |
| 2025-10-04 23:46 | 15.74613 | -66.61976 | 35976 ft | 456 kts | 184° |
| 2025-10-04 23:48 | 15.46058 | -66.63871 | 35971 ft | 457 kts | 182° |
| 2025-10-04 23:50 | 15.23845 | -66.64513 | 35980 ft | 456 kts | 183° |
| 2025-10-04 23:52 | 14.95384 | -66.65480 | 35952 ft | 435 kts | 183° |
| 2025-10-04 23:54 | 14.74879 | -66.66157 | 35955 ft | 419 kts | 183° |
| 2025-10-04 23:56 | 14.48510 | -66.67049 | 35950 ft | 423 kts | 183° |
| 2025-10-04 23:58 | 14.27961 | -66.68636 | 35937 ft | 424 kts | 186° |
| 2025-10-05 00:00 | 14.01447 | -66.70838 | 35926 ft | 425 kts | 186° |
| 2025-10-05 00:02 | 13.80797 | -66.72564 | 35929 ft | 426 kts | 186° |
| 2025-10-05 00:04 | 13.57101 | -66.74552 | 35925 ft | 430 kts | 186° |
| 2025-10-05 00:06 | 13.33167 | -66.76540 | 35939 ft | 432 kts | 186° |
| 2025-10-05 00:08 | 13.09189 | -66.78524 | 35937 ft | 432 kts | 186° |
| 2025-10-05 00:10 | 12.85133 | -66.80531 | 35928 ft | 435 kts | 186° |
| 2025-10-05 00:12 | 12.57973 | -66.82779 | 35930 ft | 435 kts | 187° |
| 2025-10-05 00:14 | 12.34706 | -66.84675 | 32920 ft | 429 kts | 186° |
| 2025-10-05 00:16 | 12.12486 | -66.86527 | 28041 ft | 371 kts | 185° |
| 2025-10-05 00:18 | 11.92967 | -66.88147 | 25299 ft | 341 kts | 184° |
| 2025-10-05 00:20 | 11.81154 | -66.89125 | 24952 ft | 340 kts | 186° |
| 2025-10-05 00:20 | 11.78844 | -66.89625 | 24888 ft | 340 kts | 197° |
| 2025-10-05 00:20 | 11.74665 | -66.91848 | 24750 ft | 341 kts | 213° |
| 2025-10-05 00:21 | 11.72707 | -66.93217 | 24683 ft | 342 kts | 213° |
| 2025-10-05 00:21 | 11.66807 | -66.97297 | 23919 ft | 341 kts | 213° |
| 2025-10-05 00:22 | 11.62876 | -67.00010 | 23034 ft | 340 kts | 213° |
| 2025-10-05 00:23 | 11.57035 | -67.04050 | 21808 ft | 336 kts | 213° |
| 2025-10-05 00:23 | 11.53174 | -67.06718 | 21007 ft | 334 kts | 213° |
| 2025-10-05 00:23 | 11.51246 | -67.08043 | 20614 ft | 334 kts | 213° |
| 2025-10-05 00:24 | 11.47391 | -67.10698 | 19814 ft | 334 kts | 214° |
| 2025-10-05 00:24 | 11.43566 | -67.13347 | 19029 ft | 335 kts | 214° |
| 2025-10-05 00:25 | 11.39696 | -67.16027 | 18238 ft | 337 kts | 214° |
| 2025-10-05 00:25 | 11.35809 | -67.18706 | 17406 ft | 336 kts | 214° |
| 2025-10-05 00:26 | 11.31848 | -67.21200 | 16631 ft | 334 kts | 201° |
| 2025-10-05 00:26 | 11.29625 | -67.21841 | 16254 ft | 331 kts | 187° |
| 2025-10-05 00:27 | 11.22760 | -67.21821 | 15123 ft | 328 kts | 177° |
| 2025-10-05 00:27 | 11.18192 | -67.21724 | 14376 ft | 328 kts | 177° |
| 2025-10-05 00:28 | 11.13662 | -67.21634 | 13618 ft | 327 kts | 177° |
| 2025-10-05 00:28 | 11.09136 | -67.21533 | 12843 ft | 323 kts | 177° |
| 2025-10-05 00:29 | 11.04654 | -67.21427 | 12079 ft | 320 kts | 177° |
| 2025-10-05 00:29 | 11.00243 | -67.21328 | 11377 ft | 315 kts | 177° |
| 2025-10-05 00:30 | 10.98055 | -67.21277 | 10997 ft | 314 kts | 177° |
| 2025-10-05 00:30 | 10.93701 | -67.21176 | 10218 ft | 312 kts | 176° |
| 2025-10-05 00:31 | 10.87329 | -67.21050 | 9319 ft | 299 kts | 179° |
| 2025-10-05 00:31 | 10.83509 | -67.22459 | 8225 ft | 296 kts | 218° |
| 2025-10-05 00:32 | 10.81094 | -67.25701 | 7395 ft | 281 kts | 236° |
| 2025-10-05 00:32 | 10.79037 | -67.28956 | 6590 ft | 265 kts | 237° |
| 2025-10-05 00:33 | 10.78050 | -67.30514 | 6187 ft | 260 kts | 237° |
| 2025-10-05 00:33 | 10.76098 | -67.33589 | 5398 ft | 256 kts | 237° |
| 2025-10-05 00:34 | 10.74177 | -67.36614 | 4611 ft | 254 kts | 236° |
| 2025-10-05 00:34 | 10.72149 | -67.39554 | 4038 ft | 262 kts | 223° |
| 2025-10-05 00:35 | 10.67006 | -67.40309 | 4040 ft | 268 kts | 150° |
| 2025-10-05 00:35 | 10.64623 | -67.37464 | 4038 ft | 269 kts | 121° |
| 2025-10-05 00:36 | 10.62670 | -67.34202 | 4041 ft | 269 kts | 122° |
| 2025-10-05 00:36 | 10.61695 | -67.32577 | 4040 ft | 270 kts | 122° |
| 2025-10-05 00:37 | 10.59871 | -67.29339 | 4027 ft | 250 kts | 110° |
| 2025-10-05 00:37 | 10.59544 | -67.25986 | 3659 ft | 235 kts | 89° |
| 2025-10-05 00:38 | 10.59666 | -67.21181 | 3161 ft | 211 kts | 89° |
| 2025-10-05 00:38 | 10.59736 | -67.18367 | 2605 ft | 187 kts | 89° |
| 2025-10-05 00:39 | 10.59746 | -67.14790 | 2009 ft | 156 kts | 89° |
| 2025-10-05 00:39 | 10.59765 | -67.13698 | 1887 ft | 153 kts | 89° |
| 2025-10-05 00:40 | 10.59868 | -67.11570 | 1914 ft | 146 kts | 88° |
| 2025-10-05 00:40 | 10.59940 | -67.09542 | 1767 ft | 141 kts | 91° |
| 2025-10-05 00:41 | 10.60024 | -67.07555 | 1367 ft | 140 kts | 88° |
| 2025-10-05 00:41 | 10.60050 | -67.05586 | 998 ft | 139 kts | 89° |
| 2025-10-05 00:42 | 10.60126 | -67.03656 | 666 ft | 137 kts | 89° |
| 2025-10-05 00:42 | 10.60191 | -67.01748 | 357 ft | 134 kts | 88° |
| 2025-10-05 00:43 | 10.60267 | -66.99480 | 180 ft | 47 kts | 88° |
| 2025-10-05 00:43 | 10.60277 | -66.99238 | 173 ft | 33 kts | 88° |
| 2025-10-05 00:44 | 10.60063 | -66.99085 | 177 ft | 28 kts | 166° |
| 2025-10-05 00:44 | 10.59881 | -66.99147 | 177 ft | 11 kts | 263° |
| 2025-10-05 00:45 | 10.59805 | -66.99650 | 168 ft | 41 kts | 277° |
| 2025-10-05 00:45 | 10.59943 | -66.99669 | 170 ft | 18 kts | 360° |
| 2025-10-05 00:46 | 10.60135 | -66.99800 | 186 ft | 28 kts | 269° |
| 2025-10-05 00:46 | 10.60116 | -67.00033 | 195 ft | 39 kts | 267° |
| 2025-10-05 00:47 | 10.59994 | -67.00221 | 203 ft | 3 kts | 213° |
| 2025-10-05 00:47 | 10.59926 | -67.00336 | 204 ft | 13 kts | 272° |
| 2025-10-05 00:48 | 10.59909 | -67.00711 | 205 ft | 30 kts | 267° |
| 2025-10-05 00:48 | 10.59836 | -67.00790 | 208 ft | 0 kts | 179° |